Byron Hills, Illinois
Current Conditions -  °F | °C
As of 7:52 PM on Wednesday 26 Nov 2014 (Local Time) from KDVN Reporting Station
Overcast Overcast  
Wind Chill: 18°   Ceiling: 1700
Heat Index: 26°   Visibility: 7mi
Dew Point: 19°   Wind: 8mph
Humidity: 75%   Direction: 10°N
Pressure: 30.21"   Gusts: NA
Location:  41.595°N, 90.2974°W
Report Text: KDVN 270152Z AUTO 01007KT 7SM OVC017 M03/M07 A3021 RMK AO2 SLP241 T10331072
Loading
Personal Weather Stations






























Interactive Weather Map New forecast layout! Learn more

10-Day Weather Forecast

Advertisements
Track Severe Weather on mobile